createdAt,value
2023-04-25T00:00:08.144Z,1.88
2023-04-25T00:05:13.198Z,1.73
2023-04-25T00:10:18.228Z,2.15
2023-04-25T00:15:23.448Z,2.00
2023-04-25T00:20:27.929Z,2.00
2023-04-25T00:25:32.510Z,2.13
2023-04-25T00:30:45.308Z,1.58
2023-04-25T00:35:54.700Z,1.90
2023-04-25T00:41:00.220Z,1.67
2023-04-25T00:46:05.470Z,1.77
2023-04-25T00:51:14.247Z,1.70
2023-04-25T00:56:20.219Z,1.85
2023-04-25T01:01:25.280Z,1.80
2023-04-25T01:06:29.566Z,1.75
2023-04-25T01:11:41.578Z,1.95
2023-04-25T01:16:47.221Z,2.00
2023-04-25T01:21:58.350Z,1.60
2023-04-25T01:27:07.451Z,2.15
2023-04-25T01:32:12.717Z,1.58
2023-04-25T01:37:21.936Z,2.13
2023-04-25T01:42:28.632Z,2.05
2023-04-25T01:47:33.093Z,2.10
2023-04-25T01:52:38.402Z,1.77
2023-04-25T01:57:41.848Z,2.05
2023-04-25T02:03:00.942Z,1.92
2023-04-25T02:08:07.373Z,1.73
2023-04-25T02:13:11.827Z,1.63
2023-04-25T02:18:17.413Z,1.80
2023-04-25T02:23:22.412Z,2.00
2023-04-25T02:28:27.832Z,1.70
2023-04-25T02:33:40.769Z,1.50
2023-04-25T02:38:49.812Z,1.55
2023-04-25T02:43:54.800Z,1.45
2023-04-25T02:48:58.677Z,1.88
2023-04-25T02:54:06.294Z,1.95
2023-04-25T02:59:12.371Z,1.92
2023-04-25T03:04:20.238Z,1.73
2023-04-25T03:09:25.715Z,1.20
2023-04-25T03:14:32.275Z,1.85
2023-04-25T03:19:39.026Z,1.90
2023-04-25T03:24:45.316Z,1.50
2023-04-25T03:29:50.740Z,1.85
2023-04-25T03:34:55.631Z,1.58
2023-04-25T03:40:01.221Z,1.73
2023-04-25T03:45:05.381Z,1.83
2023-04-25T03:50:14.983Z,1.70
2023-04-25T03:55:26.171Z,1.50
2023-04-25T04:00:31.546Z,1.77
2023-04-25T04:05:38.648Z,1.73
2023-04-25T04:10:44.995Z,1.88
2023-04-25T04:15:49.796Z,1.70
2023-04-25T04:20:54.527Z,1.80
2023-04-25T04:25:59.972Z,1.90
2023-04-25T04:31:12.680Z,2.00
2023-04-25T04:36:19.216Z,1.60
2023-04-25T04:41:27.551Z,1.45
2023-04-25T04:46:31.372Z,1.90
2023-04-25T04:51:37.783Z,1.83
2023-04-25T04:56:44.455Z,1.30
2023-04-25T05:02:03.675Z,2.00
2023-04-25T05:07:09.150Z,1.55
2023-04-25T05:12:14.351Z,1.92
2023-04-25T05:17:26.271Z,1.92
2023-04-25T05:22:31.036Z,1.90
2023-04-25T05:27:37.053Z,1.50
2023-04-25T05:32:51.043Z,1.52
2023-04-25T05:37:58.700Z,1.88
2023-04-25T05:43:10.185Z,1.35
2023-04-25T05:48:13.596Z,1.42
2023-04-25T05:53:16.926Z,1.52
2023-04-25T05:58:26.216Z,1.15
2023-04-25T06:03:31.877Z,1.33
2023-04-25T06:08:36.593Z,1.58
2023-04-25T06:13:43.152Z,1.35
2023-04-25T06:18:46.575Z,1.40
2023-04-25T06:23:50.666Z,1.35
2023-04-25T06:28:55.925Z,1.20
2023-04-25T06:34:00.447Z,1.40
2023-04-25T06:39:05.482Z,1.25
2023-04-25T06:44:15.979Z,1.08
2023-04-25T06:49:20.970Z,1.40
2023-04-25T06:54:25.927Z,1.27
2023-04-25T06:59:34.195Z,1.20
2023-04-25T07:05:06.118Z,1.30
2023-04-25T07:10:14.391Z,1.67
2023-04-25T07:15:20.214Z,1.38
2023-04-25T07:20:25.560Z,2.58
2023-04-25T07:25:31.911Z,1.50
2023-04-25T07:30:39.656Z,1.17
2023-04-25T07:35:43.142Z,1.85
2023-04-25T07:40:47.924Z,1.30
2023-04-25T07:45:52.880Z,1.50
2023-04-25T07:50:57.794Z,1.48
2023-04-25T07:56:02.503Z,1.45
2023-04-25T08:01:09.540Z,1.33
2023-04-25T08:06:15.750Z,1.40
2023-04-25T08:11:19.436Z,1.48
2023-04-25T08:16:24.468Z,1.45
2023-04-25T08:21:28.765Z,2.03
2023-04-25T08:26:33.982Z,1.88
2023-04-25T08:31:41.970Z,1.70
2023-04-25T08:36:47.469Z,1.80
2023-04-25T08:41:52.923Z,2.22
2023-04-25T08:46:58.699Z,1.35
2023-04-25T08:52:03.645Z,1.58
2023-04-25T08:57:09.986Z,1.52
2023-04-25T09:02:22.166Z,0.93
2023-04-25T09:07:26.771Z,1.25
2023-04-25T09:12:31.730Z,1.70
2023-04-25T09:17:41.550Z,1.20
2023-04-25T09:22:49.903Z,1.10
2023-04-25T09:27:57.035Z,0.90
2023-04-25T09:33:08.814Z,1.13
2023-04-25T09:38:14.346Z,1.25
2023-04-25T09:43:25.181Z,1.80
2023-04-25T09:48:34.079Z,1.88
2023-04-25T09:53:42.823Z,1.27
2023-04-25T09:58:49.479Z,1.48
2023-04-25T10:03:59.308Z,1.65
2023-04-25T10:14:42.296Z,0.80
2023-04-25T10:19:49.058Z,0.63
2023-04-25T10:25:02.267Z,0.30
2023-04-25T10:30:19.684Z,0.40
2023-04-25T10:35:28.117Z,0.40
2023-04-25T10:40:34.010Z,0.50
2023-04-25T10:45:54.950Z,0.40
2023-04-25T10:51:13.693Z,0.40
2023-04-25T10:56:21.282Z,0.38
2023-04-25T11:01:27.837Z,0.30
2023-04-25T11:06:45.408Z,0.30
2023-04-25T11:11:57.358Z,0.50
2023-04-25T11:17:08.337Z,0.40
2023-04-25T11:22:14.909Z,0.50
2023-04-25T11:27:22.754Z,0.60
2023-04-25T11:32:27.783Z,0.40
2023-04-25T11:43:02.744Z,0.30
2023-04-25T11:48:06.590Z,0.40
2023-04-25T11:53:12.575Z,0.50
2023-04-25T11:58:19.073Z,0.43
2023-04-25T12:03:27.482Z,0.30
2023-04-25T12:08:34.460Z,0.30
2023-04-25T12:13:37.876Z,0.30
2023-04-25T12:18:42.689Z,0.30
2023-04-25T12:23:49.672Z,0.30
2023-04-25T12:28:53.881Z,0.50
2023-04-25T12:33:58.772Z,0.35
2023-04-25T12:39:08.874Z,0.50
2023-04-25T12:44:15.829Z,0.30
2023-04-25T12:49:19.799Z,0.30
2023-04-25T12:54:26.978Z,0.30
2023-04-25T12:59:36.029Z,0.40
2023-04-25T13:04:39.296Z,0.30
2023-04-25T13:15:13.049Z,0.50
2023-04-25T13:20:20.663Z,0.40
2023-04-25T13:25:26.663Z,0.90
2023-04-25T13:30:29.973Z,1.63
2023-04-25T13:35:36.926Z,0.50
2023-04-25T13:40:43.206Z,1.73
2023-04-25T13:45:46.747Z,0.70
2023-04-25T13:50:51.692Z,0.65
2023-04-25T13:55:56.553Z,1.20
2023-04-25T14:01:01.074Z,0.80
2023-04-25T14:06:05.823Z,1.08
2023-04-25T14:11:11.511Z,0.80
2023-04-25T14:16:18.336Z,1.02
2023-04-25T14:21:22.062Z,1.27
2023-04-25T14:26:26.749Z,1.27
2023-04-25T14:31:29.974Z,1.60
2023-04-25T14:36:36.013Z,1.70
2023-04-25T14:41:41.608Z,2.15
2023-04-25T14:46:53.122Z,1.90
2023-04-25T14:51:57.375Z,2.10
2023-04-25T14:57:06.384Z,2.17
2023-04-25T15:02:09.774Z,2.22
2023-04-25T15:07:16.328Z,2.83
2023-04-25T15:12:24.298Z,2.85
2023-04-25T15:17:31.939Z,2.28
2023-04-25T15:22:37.638Z,2.20
2023-04-25T15:27:44.703Z,2.25
2023-04-25T15:32:48.526Z,2.28
2023-04-25T15:37:52.670Z,2.00
2023-04-25T15:42:57.279Z,2.17
2023-04-25T15:53:29.686Z,2.47
2023-04-25T15:58:34.541Z,2.20
2023-04-25T16:03:38.122Z,2.20
2023-04-25T16:08:43.776Z,2.03
2023-04-25T16:13:48.657Z,2.35
2023-04-25T16:18:52.113Z,2.05
2023-04-25T16:23:55.907Z,2.45
2023-04-25T16:29:05.595Z,1.85
2023-04-25T16:34:09.437Z,1.90
2023-04-25T16:39:12.896Z,1.58
2023-04-25T16:44:27.992Z,1.40
2023-04-25T16:49:35.789Z,1.48
2023-04-25T16:54:40.134Z,1.40
2023-04-25T16:59:46.648Z,1.30
2023-04-25T17:04:50.054Z,1.50
2023-04-25T17:09:53.419Z,1.30
2023-04-25T17:14:58.155Z,1.67
2023-04-25T17:20:02.284Z,1.60
2023-04-25T17:25:06.057Z,1.50
2023-04-25T17:35:40.642Z,1.70
2023-04-25T17:40:43.928Z,1.33
2023-04-25T17:45:51.502Z,1.20
2023-04-25T17:50:59.370Z,1.77
2023-04-25T17:56:05.186Z,1.40
2023-04-25T18:01:10.817Z,1.45
2023-04-25T18:06:14.166Z,4.95
2023-04-25T18:11:17.640Z,3.83
2023-04-25T18:16:33.713Z,2.58
2023-04-25T18:21:38.683Z,1.83
2023-04-25T18:26:42.216Z,1.73
2023-04-25T18:31:49.703Z,1.52
2023-04-25T18:36:55.905Z,2.10
2023-04-25T18:42:05.536Z,2.30
2023-04-25T18:47:13.183Z,1.92
2023-04-25T18:52:17.845Z,1.60
2023-04-25T18:57:21.164Z,2.40
2023-04-25T19:02:26.358Z,2.25
2023-04-25T19:07:32.619Z,1.98
2023-04-25T19:12:38.072Z,2.78
2023-04-25T19:17:42.905Z,2.30
2023-04-25T19:22:46.253Z,2.42
2023-04-25T19:27:49.589Z,3.15
2023-04-25T19:32:54.557Z,3.45
2023-04-25T19:37:58.310Z,3.80
2023-04-25T19:43:02.780Z,2.78
2023-04-25T19:48:11.279Z,2.67
2023-04-25T19:53:14.604Z,3.20
2023-04-25T19:58:17.961Z,2.97
2023-04-25T20:03:24.713Z,3.33
2023-04-25T20:08:28.426Z,3.33
2023-04-25T20:13:34.411Z,3.17
2023-04-25T20:18:41.827Z,2.88
2023-04-25T20:23:45.492Z,3.63
2023-04-25T20:28:51.762Z,3.13
2023-04-25T20:33:56.936Z,3.53
2023-04-25T20:39:02.637Z,3.13
2023-04-25T20:44:09.135Z,3.05
2023-04-25T20:49:14.518Z,3.10
2023-04-25T20:54:19.300Z,3.75
2023-04-25T20:59:22.460Z,2.67
2023-04-25T21:04:27.249Z,3.47
2023-04-25T21:09:31.311Z,3.45
2023-04-25T21:14:34.893Z,2.72
2023-04-25T21:19:39.535Z,2.85
2023-04-25T21:24:42.842Z,2.63
2023-04-25T21:29:46.697Z,2.42
2023-04-25T21:34:51.286Z,2.88
2023-04-25T21:39:55.548Z,3.80
2023-04-25T21:44:58.797Z,2.97
2023-04-25T21:50:04.484Z,2.58
2023-04-25T21:55:08.150Z,2.22
2023-04-25T22:00:21.249Z,3.05
2023-04-25T22:05:27.027Z,2.58
2023-04-25T22:10:30.486Z,2.42
2023-04-25T22:15:35.631Z,2.97
2023-04-25T22:20:40.852Z,2.95
2023-04-25T22:25:44.155Z,3.25
2023-04-25T22:30:47.436Z,2.90
2023-04-25T22:35:51.975Z,3.00
2023-04-25T22:40:55.253Z,3.75
2023-04-25T22:46:00.071Z,3.75
2023-04-25T22:51:06.377Z,3.88
2023-04-25T22:56:10.372Z,3.47
2023-04-25T23:01:13.675Z,3.30
2023-04-25T23:06:18.854Z,3.50
2023-04-25T23:11:23.898Z,3.45
2023-04-25T23:16:27.263Z,3.17
2023-04-25T23:21:31.835Z,3.88
2023-04-25T23:26:35.223Z,2.63
2023-04-25T23:31:39.622Z,3.25
2023-04-25T23:36:44.530Z,3.35
2023-04-25T23:41:47.792Z,3.33
2023-04-25T23:46:51.386Z,3.53
2023-04-25T23:51:56.100Z,3.63
2023-04-25T23:56:59.352Z,3.47
